Time;durP1;ratioP1;P1;durP2;ratioP2;P2;SDS_P1;SDS_P2;PMS_P1;PMS_P2;Temp;Humidity;BMP_temperature;BMP_pressure;BME280_temperature;BME280_humidity;BME280_pressure;Samples;Min_cycle;Max_cycle;Signal;HPM_P1;HPM_P2
2021/10/08 00:01:41;;;;;;;2.10;0.70;;;;;;;11.11;71.94;97110.00;5056682;28;20040;-61
2021/10/08 00:04:07;;;;;;;1.00;0.60;;;;;;;11.09;70.05;97110.94;5056657;28;20467;-62
2021/10/08 00:06:32;;;;;;;1.92;1.02;;;;;;;11.06;70.94;97124.13;5056683;28;20464;-62
2021/10/08 00:08:58;;;;;;;1.90;0.95;;;;;;;11.10;71.75;97118.75;5056734;28;20100;-62
2021/10/08 00:11:25;;;;;;;1.95;0.88;;;;;;;11.10;71.50;97121.38;5056612;28;20049;-62
2021/10/08 00:13:52;;;;;;;2.45;0.98;;;;;;;11.11;71.49;97117.84;5056740;28;20035;-62
2021/10/08 00:16:18;;;;;;;1.17;1.08;;;;;;;11.14;71.98;97126.53;5056452;28;20035;-62
2021/10/08 00:18:44;;;;;;;2.78;0.85;;;;;;;11.12;71.75;97119.56;5056501;28;20092;-62
2021/10/08 00:21:09;;;;;;;2.10;1.08;;;;;;;11.07;71.41;97125.84;5056306;28;20024;-61
2021/10/08 00:23:36;;;;;;;3.47;1.08;;;;;;;11.03;71.15;97117.25;5056333;28;20025;-62
2021/10/08 00:26:03;;;;;;;1.45;0.70;;;;;;;11.07;71.79;97116.22;5056251;28;20428;-62
2021/10/08 00:28:28;;;;;;;2.88;0.80;;;;;;;11.10;71.80;97113.53;5056355;28;20025;-62
2021/10/08 00:30:54;;;;;;;1.25;0.70;;;;;;;11.10;71.62;97110.91;5056272;28;20024;-61
2021/10/08 00:33:19;;;;;;;1.95;1.10;;;;;;;11.02;71.75;97098.97;5056206;28;20044;-62
2021/10/08 00:35:45;;;;;;;1.52;0.80;;;;;;;11.04;72.28;97099.75;5056187;28;20021;-62
2021/10/08 00:38:11;;;;;;;2.80;1.30;;;;;;;11.04;72.02;97100.63;5055955;28;20041;-62
2021/10/08 00:40:39;;;;;;;4.20;0.90;;;;;;;11.04;71.73;97105.84;5056038;28;20488;-61
2021/10/08 00:43:06;;;;;;;2.30;0.90;;;;;;;11.11;72.40;97107.38;5056081;28;20033;-62
2021/10/08 00:45:32;;;;;;;1.60;0.80;;;;;;;11.10;72.38;97115.28;5056100;28;20028;-61
2021/10/08 00:48:00;;;;;;;1.70;0.77;;;;;;;11.14;71.91;97114.28;5056025;28;20029;-61
2021/10/08 00:50:26;;;;;;;5.78;1.23;;;;;;;11.15;72.35;97107.28;5055791;28;20024;-61
2021/10/08 00:52:52;;;;;;;0.82;0.77;;;;;;;11.14;71.88;97102.94;5055785;28;20021;-61
2021/10/08 00:55:18;;;;;;;5.43;1.13;;;;;;;11.11;72.28;97103.91;5055723;28;20033;-62
2021/10/08 00:57:48;;;;;;;1.05;0.88;;;;;;;11.03;71.54;97098.91;5055854;28;20355;-61
2021/10/08 01:00:15;;;;;;;1.65;0.90;;;;;;;11.02;71.10;97088.47;5055783;28;20021;-62
2021/10/08 01:02:41;;;;;;;0.80;0.63;;;;;;;11.01;71.14;97092.84;5055623;28;20029;-62
2021/10/08 01:05:07;;;;;;;6.07;1.45;;;;;;;11.06;71.05;97090.09;5054957;28;20075;-62
2021/10/08 01:07:33;;;;;;;3.22;0.77;;;;;;;11.12;71.46;97093.41;5055684;28;20018;-62
2021/10/08 01:09:59;;;;;;;2.42;0.90;;;;;;;11.11;70.94;97086.44;5055590;28;20013;-61
2021/10/08 01:12:25;;;;;;;2.58;0.90;;;;;;;11.11;70.81;97083.81;5055324;28;20051;-61
2021/10/08 01:14:50;;;;;;;1.05;0.80;;;;;;;11.17;70.96;97085.38;5055336;28;20471;-62
2021/10/08 01:17:18;;;;;;;4.80;0.77;;;;;;;11.16;70.80;97083.66;5055306;28;20025;-61
2021/10/08 01:19:44;;;;;;;2.15;0.98;;;;;;;11.14;69.97;97085.50;5055237;28;20021;-61
2021/10/08 01:22:10;;;;;;;1.02;0.70;;;;;;;11.11;70.09;97085.59;5055315;28;20025;-62
2021/10/08 01:24:36;;;;;;;1.70;0.60;;;;;;;11.11;70.71;97088.22;5055193;28;20048;-61
2021/10/08 01:27:07;;;;;;;0.90;0.70;;;;;;;11.16;70.80;97088.91;5055143;28;20431;-62
2021/10/08 01:29:45;;;;;;;1.08;0.52;;;;;;;11.19;70.58;97085.31;5055195;28;20029;-62
2021/10/08 01:32:10;;;;;;;5.20;0.70;;;;;;;11.09;70.39;97079.53;5055140;28;20017;-61
2021/10/08 01:34:36;;;;;;;0.75;0.50;;;;;;;11.07;70.19;97074.34;5055075;28;20032;-61
2021/10/08 01:37:01;;;;;;;3.75;0.88;;;;;;;11.04;70.26;97074.44;5054659;28;20043;-61
2021/10/08 01:39:27;;;;;;;0.50;0.50;;;;;;;11.05;70.26;97078.75;5054877;28;20028;-61
2021/10/08 01:41:52;;;;;;;3.78;0.82;;;;;;;11.08;70.64;97078.66;5054836;28;20550;-61
2021/10/08 01:44:18;;;;;;;0.98;0.70;;;;;;;11.09;69.59;97076.91;5055068;28;20021;-61
2021/10/08 01:46:43;;;;;;;0.77;0.63;;;;;;;11.06;70.66;97071.78;5054775;28;20371;-61
2021/10/08 01:49:09;;;;;;;1.45;0.80;;;;;;;11.01;71.07;97071.06;5054723;28;20029;-62
2021/10/08 01:51:34;;;;;;;4.28;0.82;;;;;;;10.92;70.99;97073.06;5054685;28;20348;-62
2021/10/08 01:54:00;;;;;;;0.70;0.70;;;;;;;10.87;72.21;97074.97;5054640;28;20552;-62
2021/10/08 01:56:29;;;;;;;1.58;0.63;;;;;;;10.84;72.49;97069.84;5054660;28;20107;-62
2021/10/08 01:58:54;;;;;;;1.83;1.15;;;;;;;10.81;72.77;97077.78;5054499;28;20364;-62
2021/10/08 02:01:20;;;;;;;0.80;0.80;;;;;;;10.76;72.77;97077.03;5053114;28;20083;-62
2021/10/08 02:03:47;;;;;;;2.55;1.00;;;;;;;10.72;73.29;97073.69;5054405;28;20025;-62
2021/10/08 02:06:13;;;;;;;4.50;0.80;;;;;;;10.70;73.59;97072.84;5054317;28;20032;-62
2021/10/08 02:08:38;;;;;;;5.07;1.30;;;;;;;10.64;73.92;97078.25;5054416;28;20029;-62
2021/10/08 02:11:04;;;;;;;1.20;0.70;;;;;;;10.59;73.97;97075.78;5054241;28;20021;-62
2021/10/08 02:13:29;;;;;;;1.15;0.75;;;;;;;10.52;74.33;97074.25;5054265;28;20024;-62
2021/10/08 02:15:55;;;;;;;2.45;0.80;;;;;;;10.53;74.75;97083.84;5054220;28;20052;-62
2021/10/08 02:18:20;;;;;;;3.75;0.70;;;;;;;10.48;75.18;97084.81;5053140;28;20102;-61
2021/10/08 02:20:46;;;;;;;1.05;0.88;;;;;;;10.49;75.63;97076.06;5054021;28;20033;-62
2021/10/08 02:23:12;;;;;;;2.00;0.82;;;;;;;10.41;76.30;97077.16;5054090;28;20044;-61
2021/10/08 02:25:37;;;;;;;1.48;0.98;;;;;;;10.45;76.16;97073.56;5054146;28;20033;-62
2021/10/08 02:28:03;;;;;;;4.25;0.70;;;;;;;10.51;76.36;97069.94;5053962;28;20028;-61
2021/10/08 02:30:29;;;;;;;1.80;0.90;;;;;;;10.49;76.19;97069.97;5054021;28;20025;-62
2021/10/08 02:32:54;;;;;;;2.22;0.90;;;;;;;10.54;77.09;97068.06;5053888;28;20549;-61
2021/10/08 02:35:20;;;;;;;4.70;0.93;;;;;;;10.52;76.62;97058.56;5053765;28;20021;-62
2021/10/08 02:37:45;;;;;;;1.23;0.90;;;;;;;10.55;76.96;97067.19;5053634;28;20395;-61
2021/10/08 02:40:11;;;;;;;2.15;0.80;;;;;;;10.50;77.34;97069.06;5053790;28;20025;-61
2021/10/08 02:42:37;;;;;;;1.95;0.93;;;;;;;10.49;77.21;97063.00;5053663;28;20025;-62
2021/10/08 02:45:03;;;;;;;2.58;0.90;;;;;;;10.48;77.46;97066.50;5053654;28;20375;-62
2021/10/08 02:47:29;;;;;;;1.00;0.80;;;;;;;10.46;77.02;97065.69;5053548;28;20029;-62
2021/10/08 02:49:54;;;;;;;2.78;0.82;;;;;;;10.35;77.58;97062.47;5053608;28;20036;-62
2021/10/08 02:52:20;;;;;;;2.10;1.00;;;;;;;10.32;77.59;97057.34;5053496;28;20021;-61
2021/10/08 02:54:45;;;;;;;2.78;0.85;;;;;;;10.32;78.09;97052.97;5053344;28;20486;-61
2021/10/08 02:57:11;;;;;;;2.25;1.08;;;;;;;10.36;78.02;97062.44;5053575;28;20079;-62
2021/10/08 02:59:36;;;;;;;2.58;1.00;;;;;;;10.38;77.87;97062.41;5053471;28;20359;-62
2021/10/08 03:02:02;;;;;;;1.15;0.95;;;;;;;10.39;77.66;97061.53;5053256;28;20115;-61
2021/10/08 03:04:27;;;;;;;3.08;0.98;;;;;;;10.45;77.74;97058.72;5053280;28;20068;-61
2021/10/08 03:06:53;;;;;;;2.75;0.90;;;;;;;10.50;78.31;97061.22;5053296;28;20025;-62
2021/10/08 03:09:18;;;;;;;3.40;1.20;;;;;;;10.50;77.86;97058.59;5053313;28;20020;-62
2021/10/08 03:11:44;;;;;;;3.42;0.95;;;;;;;10.49;78.28;97051.66;5053252;28;20044;-61
2021/10/08 03:14:10;;;;;;;3.13;1.35;;;;;;;10.48;78.53;97052.56;5053181;28;20610;-62
2021/10/08 03:16:35;;;;;;;1.08;0.80;;;;;;;10.52;78.39;97064.66;5053165;28;20020;-61
2021/10/08 03:19:01;;;;;;;1.08;0.80;;;;;;;10.51;78.22;97065.56;5053198;28;20078;-61
2021/10/08 03:21:27;;;;;;;3.75;0.98;;;;;;;10.51;78.54;97057.72;5053091;28;20120;-62
2021/10/08 03:23:52;;;;;;;2.30;1.00;;;;;;;10.58;78.96;97061.88;5052994;28;20036;-62
2021/10/08 03:26:18;;;;;;;2.45;0.73;;;;;;;10.63;78.29;97059.13;5053132;28;20052;-62
2021/10/08 03:28:45;;;;;;;1.30;0.90;;;;;;;10.55;77.93;97055.84;5052800;28;20021;-62
2021/10/08 03:31:11;;;;;;;1.75;1.20;;;;;;;10.58;77.78;97061.88;5053147;28;20029;-62
2021/10/08 03:33:36;;;;;;;2.30;0.93;;;;;;;10.61;78.13;97064.38;5053018;28;20083;-61
2021/10/08 03:36:02;;;;;;;1.25;1.08;;;;;;;10.60;77.68;97065.28;5052651;28;20071;-62
2021/10/08 03:38:31;;;;;;;1.92;1.10;;;;;;;10.69;77.94;97066.75;5052968;28;20071;-62
2021/10/08 03:41:07;;;;;;;3.30;0.80;;;;;;;10.62;77.42;97067.84;5052865;28;20507;-62
2021/10/08 03:43:34;;;;;;;3.05;0.82;;;;;;;10.58;77.19;97056.63;5053096;28;20028;-61
2021/10/08 03:46:07;;;;;;;1.70;0.80;;;;;;;10.52;77.54;97046.34;5052912;28;20505;-61
2021/10/08 03:51:03;;;;;;;1.40;1.00;;;;;;;10.43;78.04;97057.91;5052971;28;20383;-62
2021/10/08 03:53:30;;;;;;;4.97;0.90;;;;;;;10.41;78.41;97054.47;5052888;28;20411;-61
2021/10/08 03:55:56;;;;;;;3.55;0.82;;;;;;;10.39;78.16;97058.91;5052810;28;20021;-61
2021/10/08 03:58:21;;;;;;;3.05;0.90;;;;;;;10.40;78.54;97070.19;5052781;28;20379;-61
2021/10/08 04:00:47;;;;;;;11.20;1.00;;;;;;;10.46;78.51;97065.69;5052709;28;20025;-62
2021/10/08 04:03:12;;;;;;;1.75;0.90;;;;;;;10.48;78.15;97076.94;5052720;28;20025;-61
2021/10/08 04:05:38;;;;;;;3.13;1.17;;;;;;;10.51;78.04;97081.25;5052690;28;20021;-62
2021/10/08 04:08:04;;;;;;;1.10;1.00;;;;;;;10.58;78.83;97100.25;5052769;28;20017;-61
2021/10/08 04:10:29;;;;;;;1.25;1.02;;;;;;;10.53;79.15;97087.28;5052738;28;20036;-62
2021/10/08 04:12:55;;;;;;;4.13;1.50;;;;;;;10.57;79.31;97088.91;5052612;28;20468;-61
2021/10/08 04:15:22;;;;;;;4.70;1.17;;;;;;;10.64;79.11;97093.97;5052601;28;20383;-62
2021/10/08 04:17:48;;;;;;;2.97;1.50;;;;;;;10.70;79.21;97093.78;5052499;28;20029;-62
2021/10/08 04:20:13;;;;;;;3.53;1.15;;;;;;;10.73;79.06;97101.56;5052595;28;20025;-62
2021/10/08 04:22:39;;;;;;;5.10;1.30;;;;;;;10.77;78.91;97095.31;5052492;28;20143;-62
2021/10/08 04:25:06;;;;;;;2.05;1.25;;;;;;;10.76;78.82;97098.84;5052582;28;20067;-61
2021/10/08 04:27:31;;;;;;;1.45;1.00;;;;;;;10.78;78.43;97102.28;5052416;28;20025;-62
2021/10/08 04:29:57;;;;;;;4.85;1.40;;;;;;;10.82;78.34;97103.03;5052438;28;20104;-62
2021/10/08 04:32:22;;;;;;;1.85;1.35;;;;;;;10.84;78.46;97109.09;5052530;28;20025;-62
2021/10/08 04:34:48;;;;;;;2.40;1.27;;;;;;;10.87;78.02;97099.38;5052520;28;20025;-61
2021/10/08 04:37:14;;;;;;;4.72;1.13;;;;;;;10.84;78.21;97094.22;5052076;28;20120;-62
2021/10/08 04:39:39;;;;;;;3.58;1.17;;;;;;;10.85;77.98;97095.97;5052443;28;20029;-62
2021/10/08 04:42:05;;;;;;;1.45;1.17;;;;;;;10.89;78.07;97107.19;5055439;28;20047;-62
2021/10/08 04:44:32;;;;;;;1.70;1.08;;;;;;;10.91;77.96;97107.13;5055948;28;20376;-62
2021/10/08 04:46:58;;;;;;;1.60;1.50;;;;;;;10.86;77.98;97102.03;5055808;28;20029;-62
2021/10/08 04:49:24;;;;;;;3.45;1.25;;;;;;;10.87;77.96;97101.97;5055874;28;20029;-62
2021/10/08 04:51:50;;;;;;;3.28;1.65;;;;;;;10.70;77.02;97091.16;5055929;28;20028;-62
2021/10/08 04:54:15;;;;;;;4.28;1.75;;;;;;;10.42;77.18;97087.56;5055862;28;20383;-62
2021/10/08 04:56:41;;;;;;;2.65;1.70;;;;;;;10.29;77.81;97081.81;5055748;28;20383;-62
2021/10/08 04:59:07;;;;;;;2.42;1.58;;;;;;;10.24;78.33;97081.13;5055667;28;20040;-61
2021/10/08 05:01:32;;;;;;;1.98;1.40;;;;;;;10.16;78.93;97078.72;5055536;28;20023;-62
2021/10/08 05:03:58;;;;;;;1.58;1.33;;;;;;;10.07;79.23;97077.22;5055678;28;20021;-62
2021/10/08 05:06:24;;;;;;;3.15;1.67;;;;;;;10.01;80.11;97079.13;5055686;28;20468;-61
2021/10/08 05:08:49;;;;;;;7.32;1.90;;;;;;;9.87;79.81;97085.56;5055568;28;20021;-61
2021/10/08 05:11:16;;;;;;;1.83;1.45;;;;;;;9.88;80.05;97102.13;5055478;28;20036;-62
2021/10/08 05:13:41;;;;;;;2.47;1.92;;;;;;;9.89;80.27;97103.81;5055336;28;20494;-62
2021/10/08 05:16:07;;;;;;;2.85;1.65;;;;;;;9.96;80.33;97121.06;5055359;28;20071;-62
2021/10/08 05:18:33;;;;;;;3.58;1.63;;;;;;;10.06;79.99;97122.53;5055313;28;20021;-61
2021/10/08 05:20:58;;;;;;;2.90;1.60;;;;;;;10.10;79.55;97125.94;5055407;28;20025;-62
2021/10/08 05:23:24;;;;;;;3.53;2.20;;;;;;;10.17;79.81;97124.03;5055248;28;20452;-62
2021/10/08 05:25:49;;;;;;;2.15;1.95;;;;;;;10.29;79.32;97125.44;5055128;28;20079;-61
2021/10/08 05:28:15;;;;;;;3.53;1.65;;;;;;;10.29;79.40;97123.66;5055186;28;20071;-62
2021/10/08 05:30:41;;;;;;;3.60;1.60;;;;;;;10.34;79.53;97121.78;5055182;28;20108;-61
2021/10/08 05:33:06;;;;;;;4.35;2.13;;;;;;;10.33;79.33;97112.22;5055174;28;20505;-62
2021/10/08 05:35:32;;;;;;;1.95;1.75;;;;;;;10.30;79.20;97109.69;5055016;28;20029;-62
2021/10/08 05:37:58;;;;;;;3.03;1.85;;;;;;;10.28;79.01;97105.41;5054840;28;20449;-61
2021/10/08 05:40:23;;;;;;;2.17;1.98;;;;;;;10.18;79.24;97115.28;5054918;28;20032;-61
2021/10/08 05:42:49;;;;;;;3.47;1.85;;;;;;;10.17;79.26;97105.72;5055009;28;20566;-62
2021/10/08 05:45:15;;;;;;;5.40;1.80;;;;;;;10.23;79.84;97098.56;5054904;28;20074;-61
2021/10/08 05:47:40;;;;;;;2.22;2.03;;;;;;;10.23;80.20;97085.47;5054813;28;20108;-61
2021/10/08 05:50:06;;;;;;;4.70;2.33;;;;;;;10.19;80.34;97088.22;5054714;28;20090;-62
2021/10/08 05:52:32;;;;;;;3.22;2.05;;;;;;;10.17;79.96;97092.66;5054558;28;20052;-61
2021/10/08 05:54:57;;;;;;;2.28;2.05;;;;;;;10.12;80.37;97087.53;5053371;28;20021;-62
2021/10/08 05:57:23;;;;;;;2.40;2.08;;;;;;;10.18;80.35;97087.34;5054609;28;20035;-62
2021/10/08 05:59:49;;;;;;;4.18;1.75;;;;;;;10.13;80.26;97088.38;5054592;28;20490;-61
2021/10/08 06:02:14;;;;;;;2.60;2.10;;;;;;;10.17;80.95;97096.09;5053123;28;20112;-62
2021/10/08 06:04:40;;;;;;;5.63;2.30;;;;;;;10.20;80.36;97109.09;5054475;28;20025;-62
2021/10/08 06:07:07;;;;;;;2.55;2.25;;;;;;;10.23;80.05;97110.75;5054460;28;20032;-62
2021/10/08 06:09:36;;;;;;;1.88;1.67;;;;;;;10.31;79.82;97126.25;5054489;28;20052;-62
2021/10/08 06:12:03;;;;;;;3.55;1.85;;;;;;;10.28;79.01;97118.47;5054386;28;20126;-62
2021/10/08 06:14:28;;;;;;;3.10;1.65;;;;;;;10.23;79.43;97124.69;5054216;28;20020;-61
2021/10/08 06:16:54;;;;;;;4.30;1.92;;;;;;;10.19;79.68;97112.63;5054270;28;20029;-62
2021/10/08 06:19:19;;;;;;;2.60;1.58;;;;;;;10.17;79.94;97121.41;5054273;28;20025;-61
2021/10/08 06:21:45;;;;;;;6.05;2.03;;;;;;;10.14;80.22;97116.25;5054063;28;20025;-61
2021/10/08 06:24:11;;;;;;;2.15;1.80;;;;;;;10.14;79.99;97124.09;5054051;28;20091;-62
2021/10/08 06:26:36;;;;;;;4.80;2.00;;;;;;;10.13;80.08;97107.56;5053990;28;20033;-62
2021/10/08 06:29:02;;;;;;;5.40;1.88;;;;;;;10.19;80.46;97111.75;5054079;28;20025;-61
2021/10/08 06:31:28;;;;;;;3.80;1.85;;;;;;;10.21;80.31;97110.78;5053962;28;20378;-61
2021/10/08 06:33:53;;;;;;;3.50;1.60;;;;;;;10.29;79.61;97105.38;5053977;28;20040;-61
2021/10/08 06:36:19;;;;;;;2.40;1.48;;;;;;;10.27;79.52;97112.41;5053451;28;20048;-61
2021/10/08 06:38:44;;;;;;;4.75;1.90;;;;;;;10.29;79.43;97122.84;5053868;28;20021;-62
2021/10/08 06:41:10;;;;;;;1.95;1.70;;;;;;;10.28;78.93;97127.19;5053671;28;20098;-61
2021/10/08 06:43:36;;;;;;;4.28;1.38;;;;;;;10.23;79.67;97119.47;5053840;28;20023;-62
2021/10/08 06:46:02;;;;;;;6.30;1.52;;;;;;;10.21;79.92;97108.19;5053685;28;20029;-61
2021/10/08 06:48:27;;;;;;;3.58;1.70;;;;;;;10.18;79.80;97097.81;5053755;28;20040;-61
2021/10/08 06:50:54;;;;;;;4.63;2.05;;;;;;;10.22;79.93;97114.28;5053675;28;20028;-61
2021/10/08 06:53:20;;;;;;;7.20;2.15;;;;;;;10.28;80.15;97113.25;5053504;28;20033;-61
2021/10/08 06:55:47;;;;;;;4.45;1.88;;;;;;;10.28;79.35;97113.25;5052375;28;20031;-61
2021/10/08 06:58:12;;;;;;;4.65;1.80;;;;;;;10.22;79.20;97119.50;5053490;28;20100;-62
2021/10/08 07:00:38;;;;;;;2.13;1.67;;;;;;;10.19;79.67;97110.00;5053556;28;20457;-62
2021/10/08 07:03:04;;;;;;;5.05;1.50;;;;;;;10.18;79.26;97104.81;5052825;28;20028;-61
2021/10/08 07:05:29;;;;;;;3.10;1.60;;;;;;;10.16;79.54;97102.25;5053389;28;20384;-62
2021/10/08 07:07:55;;;;;;;2.40;1.63;;;;;;;10.17;80.06;97106.56;5053232;28;20021;-62
2021/10/08 07:10:21;;;;;;;2.53;1.50;;;;;;;10.19;78.54;97111.75;5052184;28;20107;-61
2021/10/08 07:12:47;;;;;;;3.65;1.35;;;;;;;10.17;79.18;97121.41;5053169;28;20029;-62
2021/10/08 07:15:18;;;;;;;3.63;1.80;;;;;;;10.21;80.07;97123.88;5053232;28;20031;-61
2021/10/08 07:17:49;;;;;;;3.58;1.50;;;;;;;10.15;79.11;97124.06;5053217;28;20029;-62
2021/10/08 07:20:17;;;;;;;6.25;1.55;;;;;;;10.22;79.61;97122.13;5053229;28;20043;-62
2021/10/08 07:22:43;;;;;;;1.33;1.23;;;;;;;10.29;79.26;97115.81;5053176;28;20067;-62
2021/10/08 07:25:10;;;;;;;4.35;1.50;;;;;;;10.33;79.67;97106.97;5053169;28;20048;-62
2021/10/08 07:27:37;;;;;;;1.40;1.30;;;;;;;10.29;79.35;97113.22;5053101;28;20021;-62
2021/10/08 07:30:04;;;;;;;1.60;1.20;;;;;;;10.31;79.41;97114.03;5053056;28;20164;-63
2021/10/08 07:32:30;;;;;;;1.98;1.40;;;;;;;10.39;79.57;97116.44;5053071;28;20104;-62
2021/10/08 07:34:55;;;;;;;2.38;1.30;;;;;;;10.43;78.85;97114.59;5053025;28;20086;-62
2021/10/08 07:37:22;;;;;;;1.50;1.35;;;;;;;10.44;78.50;97116.28;5052685;28;20049;-62
2021/10/08 07:39:48;;;;;;;5.63;1.35;;;;;;;10.51;79.31;97103.94;5052935;28;20028;-62
2021/10/08 07:42:13;;;;;;;3.75;1.17;;;;;;;10.57;78.49;97103.78;5052904;28;20025;-62
2021/10/08 07:44:39;;;;;;;1.85;1.40;;;;;;;10.59;77.60;97100.19;5053076;28;20025;-62
2021/10/08 07:47:05;;;;;;;3.35;1.55;;;;;;;10.60;77.69;97111.53;5052913;28;20032;-62
2021/10/08 07:49:31;;;;;;;2.47;1.42;;;;;;;10.68;77.51;97106.03;5052807;28;20021;-62
2021/10/08 07:51:56;;;;;;;3.90;1.40;;;;;;;10.77;77.64;97105.78;5052824;28;20479;-62
2021/10/08 07:54:22;;;;;;;1.98;1.42;;;;;;;10.78;77.03;97101.41;5052850;28;20031;-62
2021/10/08 07:56:48;;;;;;;8.73;1.80;;;;;;;10.84;76.16;97102.06;5052842;28;20021;-62
2021/10/08 07:59:13;;;;;;;3.08;1.88;;;;;;;10.86;76.55;97102.91;5052817;28;20080;-62
2021/10/08 08:01:39;;;;;;;4.75;1.65;;;;;;;10.91;75.65;97104.50;5052662;28;20025;-62
2021/10/08 08:04:04;;;;;;;6.55;1.98;;;;;;;10.90;75.49;97110.66;5052698;28;20056;-62
2021/10/08 08:06:30;;;;;;;6.20;1.75;;;;;;;10.95;75.52;97114.84;5052729;28;20383;-62
2021/10/08 08:08:55;;;;;;;8.00;1.95;;;;;;;10.98;75.68;97112.13;5052674;28;20017;-62
2021/10/08 08:11:21;;;;;;;5.18;2.15;;;;;;;11.01;74.91;97116.41;5052571;28;20033;-62
2021/10/08 08:13:46;;;;;;;4.85;2.05;;;;;;;11.11;75.06;97101.28;5052597;28;20040;-62
2021/10/08 08:16:12;;;;;;;7.25;1.60;;;;;;;11.24;74.17;97107.00;5054492;28;20486;-62
2021/10/08 08:18:38;;;;;;;8.45;1.95;;;;;;;11.24;74.52;97097.38;5056396;28;20024;-62
2021/10/08 08:21:04;;;;;;;4.45;1.77;;;;;;;11.31;74.09;97089.31;5056341;28;20036;-62
2021/10/08 08:23:29;;;;;;;6.45;1.80;;;;;;;11.39;75.78;97087.31;5056427;28;20021;-61
2021/10/08 08:25:55;;;;;;;3.83;1.60;;;;;;;11.52;74.78;97100.84;5056329;28;20122;-62
2021/10/08 08:28:24;;;;;;;4.03;1.70;;;;;;;11.73;74.28;97101.03;5056289;28;20021;-63
2021/10/08 08:30:50;;;;;;;3.97;1.80;;;;;;;11.72;71.72;97101.97;5056257;28;20028;-62
2021/10/08 08:33:16;;;;;;;11.48;2.20;;;;;;;11.80;72.50;97112.19;5056336;28;20025;-62
2021/10/08 08:35:41;;;;;;;3.88;1.73;;;;;;;11.83;72.76;97104.22;5056209;28;20027;-62
2021/10/08 08:38:07;;;;;;;9.07;2.13;;;;;;;11.88;72.05;97100.53;5055971;28;20596;-62
2021/10/08 08:40:33;;;;;;;4.18;1.90;;;;;;;11.75;71.85;97099.25;5056044;28;20029;-62
2021/10/08 08:42:59;;;;;;;10.23;2.67;;;;;;;11.65;69.54;97103.91;5055922;28;20021;-62
2021/10/08 08:45:26;;;;;;;11.20;2.60;;;;;;;11.57;70.13;97095.47;5056080;28;20090;-62
2021/10/08 08:48:09;;;;;;;5.75;2.15;;;;;;;11.52;71.02;97094.75;5055875;28;20352;-62
2021/10/08 08:50:37;;;;;;;5.63;2.28;;;;;;;11.57;70.98;97098.97;5056003;28;20051;-62
2021/10/08 08:53:03;;;;;;;7.20;2.15;;;;;;;11.49;70.30;97107.06;5055957;28;20023;-62
2021/10/08 08:55:29;;;;;;;11.30;2.50;;;;;;;11.42;70.86;97109.94;5055750;28;20534;-61
2021/10/08 08:57:55;;;;;;;14.35;2.20;;;;;;;11.42;70.18;97107.31;5055865;28;20104;-62
2021/10/08 09:00:22;;;;;;;11.88;2.67;;;;;;;11.38;70.08;97111.81;5055659;28;20052;-62
2021/10/08 09:03:02;;;;;;;11.07;2.47;;;;;;;11.41;71.57;97116.91;5055711;28;20471;-62
2021/10/08 09:05:33;;;;;;;15.23;2.63;;;;;;;11.41;71.64;97105.59;5055670;28;20032;-62
2021/10/08 09:08:04;;;;;;;;;;;;;;;11.37;70.57;97102.22;5056114;28;20026;-62
2021/10/08 09:10:32;;;;;;;17.40;2.67;;;;;;;11.27;70.18;97106.91;5055553;28;20008;-62
2021/10/08 09:12:58;;;;;;;10.00;2.83;;;;;;;11.23;70.49;97113.16;5055422;28;20059;-62
2021/10/08 09:15:53;;;;;;;10.30;2.45;;;;;;;11.32;72.17;97114.63;5055446;28;20082;-63
2021/10/08 09:18:24;;;;;;;9.43;2.22;;;;;;;11.29;71.33;97112.94;5055585;28;20440;-61
2021/10/08 09:21:03;;;;;;;14.15;2.97;;;;;;;11.33;71.93;97113.69;5055431;28;20464;-61
2021/10/08 09:23:35;;;;;;;28.13;3.03;;;;;;;11.25;71.71;97108.69;5055267;28;20482;-62
2021/10/08 09:26:02;;;;;;;10.93;2.40;;;;;;;11.19;72.13;97114.13;5054810;28;20029;-62
2021/10/08 09:28:28;;;;;;;15.32;3.17;;;;;;;11.16;71.53;97107.22;5055182;28;20025;-62
2021/10/08 09:30:54;;;;;;;10.85;2.80;;;;;;;11.12;72.19;97119.56;5055161;28;20028;-63
2021/10/08 09:33:22;;;;;;;8.07;2.80;;;;;;;11.13;72.34;97120.41;5055183;28;20021;-61
2021/10/08 09:35:55;;;;;;;18.15;3.10;;;;;;;11.12;73.19;97126.56;5054942;28;20024;-62
2021/10/08 09:38:21;;;;;;;10.38;2.60;;;;;;;11.15;72.61;97131.72;5053835;28;20438;-62
2021/10/08 09:40:55;;;;;;;18.95;3.35;;;;;;;11.17;74.43;97134.28;5054872;28;20741;-62
2021/10/08 09:43:27;;;;;;;21.48;3.35;;;;;;;11.20;74.12;97132.41;5055057;28;20132;-61
2021/10/08 09:45:58;;;;;;;16.38;3.90;;;;;;;11.23;74.61;97129.69;5054992;28;20111;-61
2021/10/08 09:48:45;;;;;;;5.82;2.80;;;;;;;11.16;73.16;97141.28;5054852;28;20040;-61
2021/10/08 09:51:13;;;;;;;14.70;2.97;;;;;;;11.13;75.46;97141.38;5054446;28;20041;-61
2021/10/08 09:53:48;;;;;;;13.38;3.33;;;;;;;11.08;75.91;97130.19;5053416;28;20390;-61
2021/10/08 09:56:40;;;;;;;9.65;3.08;;;;;;;11.08;75.26;97136.25;5054709;28;20025;-62
2021/10/08 09:59:11;;;;;;;17.15;3.63;;;;;;;11.10;76.22;97128.38;5054538;28;20032;-62
2021/10/08 10:01:38;;;;;;;13.35;3.50;;;;;;;11.00;74.46;97127.81;5054452;28;20029;-61
2021/10/08 10:04:05;;;;;;;17.10;3.47;;;;;;;10.94;76.06;97120.13;5054477;28;20074;-60
2021/10/08 10:06:32;;;;;;;11.15;3.38;;;;;;;10.90;77.61;97108.91;5054435;28;20028;-60
2021/10/08 10:08:58;;;;;;;12.43;3.60;;;;;;;10.94;77.43;97104.41;5054457;28;20025;-60
2021/10/08 10:11:26;;;;;;;13.80;6.72;;;;;;;10.84;78.53;97114.31;5054423;28;20028;-60
2021/10/08 10:13:57;;;;;;;12.82;4.60;;;;;;;10.89;78.96;97112.41;5054315;28;20029;-61
2021/10/08 10:16:24;;;;;;;13.13;4.50;;;;;;;10.89;79.38;97101.09;5054344;28;20032;-60
2021/10/08 10:18:54;;;;;;;10.25;3.47;;;;;;;10.89;78.11;97098.50;5054331;28;20066;-60
2021/10/08 10:21:25;;;;;;;7.70;3.47;;;;;;;10.91;78.45;97100.16;5054286;28;20032;-61
2021/10/08 10:23:53;;;;;;;13.90;4.20;;;;;;;10.96;78.06;97115.72;5054214;28;20040;-61
2021/10/08 10:26:20;;;;;;;7.88;2.97;;;;;;;11.03;79.19;97116.38;5054062;28;20025;-61
2021/10/08 10:28:46;;;;;;;5.75;3.08;;;;;;;11.02;77.47;97115.53;5053993;28;20055;-60
2021/10/08 10:31:12;;;;;;;5.57;2.47;;;;;;;11.05;77.40;97104.09;5054008;28;20487;-61
2021/10/08 10:33:38;;;;;;;9.88;2.95;;;;;;;11.01;76.69;97118.19;5054021;28;20475;-61
2021/10/08 10:36:06;;;;;;;10.35;3.80;;;;;;;11.02;77.14;97118.16;5053498;28;20037;-61
2021/10/08 10:38:40;;;;;;;13.52;5.00;;;;;;;10.98;78.04;97114.75;5052810;28;20386;-61
2021/10/08 10:41:09;;;;;;;12.80;4.57;;;;;;;11.03;77.87;97109.38;5053729;28;20021;-61
2021/10/08 10:43:45;;;;;;;10.55;2.95;;;;;;;11.02;77.78;97112.03;5053736;28;20029;-61
2021/10/08 10:46:45;;;;;;;8.88;3.25;;;;;;;10.99;77.57;97115.63;5053694;28;20556;-61
2021/10/08 10:51:59;;;;;;;8.05;3.47;;;;;;;10.91;78.60;97105.38;5053829;28;20487;-60
2021/10/08 10:54:49;;;;;;;12.45;3.42;;;;;;;10.93;77.83;97103.56;5053740;28;20033;-61
2021/10/08 10:57:21;;;;;;;12.13;4.32;;;;;;;10.92;78.61;97111.44;5053642;28;20033;-60
2021/10/08 10:59:48;;;;;;;8.60;2.90;;;;;;;10.97;79.08;97107.81;5053405;28;20029;-61
2021/10/08 11:02:17;;;;;;;8.95;3.28;;;;;;;10.97;78.30;97102.59;5053309;28;20021;-61
2021/10/08 11:04:45;;;;;;;9.73;4.30;;;;;;;10.93;78.08;97103.56;5053364;28;20032;-60
2021/10/08 11:07:18;;;;;;;8.95;3.42;;;;;;;10.96;77.26;97106.09;5053426;28;20041;-61
2021/10/08 11:10:03;;;;;;;8.25;3.22;;;;;;;10.92;77.66;97106.22;5053322;28;20478;-61
2021/10/08 11:12:40;;;;;;;12.98;3.83;;;;;;;10.89;78.16;97104.56;5053416;28;20035;-61
2021/10/08 11:15:15;;;;;;;13.68;4.72;;;;;;;10.86;78.38;97095.03;5053211;28;20032;-60
2021/10/08 11:17:45;;;;;;;10.27;3.92;;;;;;;10.85;78.22;97089.84;5053313;28;20501;-61
2021/10/08 11:20:30;;;;;;;9.60;3.57;;;;;;;10.80;78.11;97095.22;5053320;28;20396;-61
2021/10/08 11:23:02;;;;;;;19.70;3.65;;;;;;;10.83;78.33;97091.66;5053129;28;20115;-60
2021/10/08 11:25:29;;;;;;;13.35;3.55;;;;;;;10.89;79.02;97091.47;5053141;28;20068;-61
2021/10/08 11:27:55;;;;;;;17.95;10.75;;;;;;;10.91;79.30;97079.19;5053125;28;20036;-60
2021/10/08 11:30:24;;;;;;;26.33;13.80;;;;;;;10.78;78.81;97083.97;5053101;28;20096;-61
2021/10/08 11:32:52;;;;;;;17.05;6.90;;;;;;;10.68;78.59;97072.03;5052996;28;20025;-60
2021/10/08 11:35:32;;;;;;;16.98;7.75;;;;;;;10.70;79.28;97075.47;5052957;28;20029;-61
2021/10/08 11:37:58;;;;;;;11.45;6.10;;;;;;;10.72;79.19;97071.06;5052862;28;20133;-61